Time;durP1;ratioP1;P1;durP2;ratioP2;P2;SDS_P1;SDS_P2;PMS_P1;PMS_P2;Temp;Humidity;BMP_temperature;BMP_pressure;BME280_temperature;BME280_humidity;BME280_pressure;Samples;Min_cycle;Max_cycle;Signal;HPM_P1;HPM_P2
2021/09/18 00:00:03;;;;;;;2.23;1.53;;;;;;;15.29;70.27;98866.84;5118976;27;41704;-83
2021/09/18 00:02:32;;;;;;;2.03;1.83;;;;;;;15.27;70.07;98858.09;5135947;27;39153;-84
2021/09/18 00:05:00;;;;;;;1.67;1.57;;;;;;;15.31;69.98;98867.56;5135522;27;40829;-83
2021/09/18 00:07:28;;;;;;;1.60;1.50;;;;;;;15.30;70.09;98876.53;5135783;27;42012;-84
2021/09/18 00:09:56;;;;;;;1.53;1.43;;;;;;;15.29;70.03;98874.00;5134845;27;41451;-83
2021/09/18 00:12:24;;;;;;;1.77;1.40;;;;;;;15.26;69.82;98872.41;5136523;27;41014;-83
2021/09/18 00:14:53;;;;;;;2.77;2.10;;;;;;;15.22;69.76;98860.28;5117561;27;41555;-83
2021/09/18 00:17:20;;;;;;;1.63;1.40;;;;;;;15.22;69.96;98868.28;5116943;27;41646;-83
2021/09/18 00:19:48;;;;;;;1.97;1.40;;;;;;;15.22;70.11;98872.78;5133871;27;41139;-83
2021/09/18 00:22:16;;;;;;;1.70;1.53;;;;;;;15.20;69.89;98870.25;5153566;27;40230;-82
2021/09/18 00:24:43;;;;;;;1.87;1.33;;;;;;;15.17;70.18;98867.84;5134220;27;42083;-83
2021/09/18 00:27:11;;;;;;;1.87;1.57;;;;;;;15.16;70.18;98868.78;5116682;27;41729;-84
2021/09/18 00:29:38;;;;;;;1.90;1.70;;;;;;;15.06;70.40;98859.84;5134909;27;42304;-83
2021/09/18 00:32:08;;;;;;;2.90;2.20;;;;;;;15.14;70.57;98873.41;5118188;27;39787;-83
2021/09/18 00:34:35;;;;;;;2.60;2.27;;;;;;;15.05;71.19;98861.66;5117387;27;41105;-83
2021/09/18 00:37:03;;;;;;;1.90;1.80;;;;;;;15.09;70.73;98864.91;5158829;27;43664;-84
2021/09/18 00:39:31;;;;;;;2.43;1.93;;;;;;;15.08;70.71;98869.41;5176814;27;42896;-84
2021/09/18 00:41:58;;;;;;;1.93;1.40;;;;;;;15.11;70.84;98873.66;5160076;27;39982;-84
2021/09/18 00:44:28;;;;;;;2.23;2.00;;;;;;;15.10;71.45;98867.47;5141226;27;41518;-84
2021/09/18 00:46:56;;;;;;;2.23;1.63;;;;;;;15.09;71.12;98875.59;5158958;27;44601;-84
2021/09/18 00:49:25;;;;;;;1.63;1.30;;;;;;;15.01;71.14;98862.03;5159582;27;42984;-85
2021/09/18 00:51:53;;;;;;;1.60;1.50;;;;;;;15.02;71.31;98853.06;5132545;27;38913;-84
2021/09/18 00:54:21;;;;;;;1.83;1.60;;;;;;;15.00;71.18;98855.00;5120056;27;40787;-84
2021/09/18 00:56:53;;;;;;;1.90;1.67;;;;;;;15.03;71.02;98854.75;5121904;27;44668;-83
2021/09/18 00:59:21;;;;;;;2.43;2.07;;;;;;;15.06;71.13;98849.19;5138854;27;41905;-83
2021/09/18 01:01:49;;;;;;;2.43;1.97;;;;;;;15.17;70.75;98872.31;5135359;27;39516;-83
2021/09/18 01:04:17;;;;;;;1.47;1.37;;;;;;;15.20;70.94;98878.25;5119210;27;40912;-83
2021/09/18 01:06:46;;;;;;;1.90;1.70;;;;;;;15.12;70.79;98851.34;5151538;27;43062;-83
2021/09/18 01:09:15;;;;;;;2.30;1.70;;;;;;;15.12;70.70;98854.00;5117397;27;42401;-84
2021/09/18 01:11:42;;;;;;;2.00;1.77;;;;;;;15.15;71.36;98848.44;5117188;27;38953;-84
2021/09/18 01:14:10;;;;;;;2.20;1.90;;;;;;;15.19;71.26;98849.03;5134279;27;42967;-83
2021/09/18 01:16:38;;;;;;;3.03;2.43;;;;;;;15.23;71.31;98856.66;5134414;27;42991;-83
2021/09/18 01:19:05;;;;;;;2.17;1.97;;;;;;;15.20;71.57;98862.25;5134386;27;42450;-83
2021/09/18 01:21:33;;;;;;;2.53;2.10;;;;;;;15.16;71.92;98863.47;5113166;27;38822;-83
2021/09/18 01:24:02;;;;;;;2.17;1.97;;;;;;;15.08;71.97;98855.25;5103238;27;40261;-83
2021/09/18 01:26:33;;;;;;;2.73;1.80;;;;;;;15.04;71.83;98856.44;5111837;27;41643;-84
2021/09/18 01:29:01;;;;;;;2.57;2.10;;;;;;;14.92;72.19;98842.28;5132479;27;41201;-84
2021/09/18 01:31:29;;;;;;;2.80;2.00;;;;;;;14.88;72.21;98845.31;5133717;27;40399;-83
2021/09/18 01:33:56;;;;;;;2.80;2.57;;;;;;;14.92;72.19;98862.78;5130639;27;41655;-83
2021/09/18 01:36:24;;;;;;;2.37;1.80;;;;;;;14.86;71.87;98863.25;5132092;27;42992;-83
2021/09/18 01:38:51;;;;;;;2.13;1.70;;;;;;;14.80;72.19;98853.09;5116136;27;41045;-83
2021/09/18 01:41:20;;;;;;;1.90;1.63;;;;;;;14.74;72.06;98857.06;5133474;27;40988;-83
2021/09/18 01:43:48;;;;;;;2.10;1.57;;;;;;;14.70;72.06;98847.66;5116839;27;41754;-83
2021/09/18 01:46:15;;;;;;;1.40;1.30;;;;;;;14.33;71.93;98804.38;5116651;27;41969;-83
2021/09/18 01:48:43;;;;;;;1.97;1.60;;;;;;;14.63;72.15;98857.09;5133068;27;42442;-84
2021/09/18 01:51:14;;;;;;;1.50;1.40;;;;;;;14.59;71.81;98852.94;5150753;27;39970;-83
2021/09/18 01:53:41;;;;;;;2.03;1.83;;;;;;;14.54;71.96;98850.66;5132141;27;41684;-83
2021/09/18 01:56:09;;;;;;;1.53;1.43;;;;;;;14.43;72.18;98840.00;5129939;27;43064;-84
2021/09/18 01:58:38;;;;;;;1.67;1.50;;;;;;;14.49;72.15;98849.31;5133179;27;42321;-83
2021/09/18 02:01:06;;;;;;;1.90;1.80;;;;;;;14.47;72.60;98844.09;5132280;27;39121;-84
2021/09/18 02:03:35;;;;;;;2.30;1.53;;;;;;;14.37;72.66;98841.28;5116029;27;40851;-83
2021/09/18 02:06:03;;;;;;;1.97;1.77;;;;;;;14.41;72.20;98849.94;5132902;27;43913;-84
2021/09/18 02:08:30;;;;;;;2.20;1.57;;;;;;;14.29;72.56;98826.88;5115360;27;42149;-83
2021/09/18 02:10:58;;;;;;;2.47;1.40;;;;;;;14.35;72.40;98843.22;5152056;27;40155;-84
2021/09/18 02:13:26;;;;;;;1.77;1.63;;;;;;;14.38;72.88;98837.66;5111974;27;40921;-83
2021/09/18 02:15:55;;;;;;;3.90;2.63;;;;;;;14.36;72.74;98838.75;5114922;27;41872;-83
2021/09/18 02:18:23;;;;;;;2.30;2.10;;;;;;;14.36;73.24;98828.09;5114702;27;41420;-83
2021/09/18 02:20:50;;;;;;;2.67;2.10;;;;;;;14.33;73.16;98826.53;5133342;27;39459;-83
2021/09/18 02:23:18;;;;;;;2.23;1.77;;;;;;;14.43;73.03;98845.34;5130251;27;42092;-84
2021/09/18 02:25:46;;;;;;;2.13;1.90;;;;;;;14.44;72.88;98847.03;5115375;27;42029;-84
2021/09/18 02:28:13;;;;;;;2.70;1.90;;;;;;;14.43;72.84;98837.34;5132938;27;42349;-84
2021/09/18 02:30:41;;;;;;;2.40;1.73;;;;;;;14.41;72.76;98835.75;5096360;27;38575;-83
2021/09/18 02:33:10;;;;;;;2.73;1.60;;;;;;;14.32;72.82;98827.50;5112502;27;41068;-83
2021/09/18 02:35:38;;;;;;;2.03;1.80;;;;;;;14.32;72.82;98826.66;5131940;27;42577;-84
2021/09/18 02:38:07;;;;;;;1.47;1.37;;;;;;;14.40;72.65;98834.06;5131263;27;42430;-84
2021/09/18 02:40:38;;;;;;;1.40;1.30;;;;;;;14.40;72.69;98836.72;5132718;27;40206;-83
2021/09/18 02:43:06;;;;;;;1.93;1.83;;;;;;;14.42;72.56;98840.13;5130735;27;41785;-84
2021/09/18 02:45:35;;;;;;;1.67;1.50;;;;;;;14.29;72.78;98818.91;5114422;27;42671;-83
2021/09/18 02:48:03;;;;;;;1.97;1.37;;;;;;;14.40;72.63;98840.25;5114865;27;41786;-83
2021/09/18 02:50:32;;;;;;;1.90;1.60;;;;;;;14.32;72.42;98821.31;5132502;27;40969;-83
2021/09/18 02:52:59;;;;;;;1.60;1.50;;;;;;;14.38;72.59;98840.31;5115979;27;41596;-84
2021/09/18 02:55:27;;;;;;;1.37;1.27;;;;;;;14.36;72.84;98838.75;5133241;27;43127;-83
2021/09/18 02:57:54;;;;;;;2.20;2.00;;;;;;;14.33;72.83;98839.00;5132499;27;42292;-84
2021/09/18 03:00:22;;;;;;;2.33;1.80;;;;;;;14.24;72.99;98827.22;5132820;27;38938;-83
2021/09/18 03:02:50;;;;;;;2.70;2.33;;;;;;;14.22;73.30;98825.66;5114212;27;40788;-83
2021/09/18 03:05:17;;;;;;;3.33;2.17;;;;;;;14.10;73.40;98803.47;5131964;27;41644;-83
2021/09/18 03:07:46;;;;;;;2.97;2.53;;;;;;;14.15;73.71;98819.13;5115277;27;41059;-83
2021/09/18 03:10:14;;;;;;;5.40;2.47;;;;;;;14.12;73.89;98819.34;5115359;27;38836;-82
2021/09/18 03:12:42;;;;;;;2.33;2.13;;;;;;;14.07;74.55;98816.22;5132648;27;42584;-83
2021/09/18 03:15:11;;;;;;;3.57;2.50;;;;;;;14.03;74.27;98819.09;5115177;27;41589;-83
2021/09/18 03:17:38;;;;;;;3.20;1.97;;;;;;;14.02;74.23;98825.38;5132142;27;42455;-83
2021/09/18 03:20:07;;;;;;;2.07;1.93;;;;;;;13.95;74.29;98812.69;5128693;27;38956;-82
2021/09/18 03:22:35;;;;;;;2.53;2.10;;;;;;;13.86;74.28;98813.38;5132206;27;41808;-83
2021/09/18 03:25:05;;;;;;;3.67;2.87;;;;;;;13.84;74.46;98816.16;5131763;27;41928;-84
2021/09/18 03:27:32;;;;;;;2.30;1.90;;;;;;;13.86;74.60;98824.88;5132268;27;42221;-82
2021/09/18 03:30:00;;;;;;;2.50;1.97;;;;;;;13.83;74.36;98830.44;5115189;27;38754;-83
2021/09/18 03:32:27;;;;;;;2.50;1.93;;;;;;;13.80;74.05;98830.66;5114817;27;40729;-83
2021/09/18 03:34:56;;;;;;;2.40;2.00;;;;;;;13.77;74.37;98833.56;5115557;27;42526;-83
2021/09/18 03:37:24;;;;;;;2.60;2.20;;;;;;;13.74;74.23;98825.78;5112803;27;41079;-83
2021/09/18 03:39:53;;;;;;;2.07;1.70;;;;;;;13.72;74.08;98830.41;5129648;27;38907;-83
2021/09/18 03:42:22;;;;;;;2.07;1.83;;;;;;;13.61;74.30;98827.69;5148456;27;41959;-83
2021/09/18 03:44:50;;;;;;;1.80;1.63;;;;;;;13.64;74.01;98843.44;5131329;27;41740;-83
2021/09/18 03:47:17;;;;;;;2.40;1.90;;;;;;;13.61;73.93;98833.84;5132015;27;43178;-83
2021/09/18 03:49:45;;;;;;;2.10;1.90;;;;;;;13.57;73.80;98842.22;5113998;27;38768;-83
2021/09/18 03:52:13;;;;;;;2.00;1.67;;;;;;;13.55;73.58;98838.81;5131892;27;42077;-83
2021/09/18 03:54:41;;;;;;;1.70;1.60;;;;;;;13.50;73.66;98831.16;5130975;27;42179;-83
2021/09/18 03:57:08;;;;;;;2.10;1.50;;;;;;;13.43;73.72;98837.06;5114400;27;41213;-83
2021/09/18 03:59:37;;;;;;;0.90;0.90;;;;;;;13.43;73.74;98837.06;5132677;27;40166;-82
2021/09/18 04:02:05;;;;;;;1.40;1.30;;;;;;;13.40;73.36;98845.25;5117343;27;41143;-82
2021/09/18 04:04:33;;;;;;;2.40;1.57;;;;;;;13.37;73.67;98837.50;5117868;27;42984;-83
2021/09/18 04:07:01;;;;;;;3.03;2.10;;;;;;;13.34;73.53;98832.44;5133903;27;41481;-83
2021/09/18 04:09:28;;;;;;;2.37;1.77;;;;;;;13.33;73.70;98836.91;5117433;27;38985;-83
2021/09/18 04:11:56;;;;;;;1.80;1.40;;;;;;;13.33;73.53;98836.91;5117358;27;40817;-83
2021/09/18 04:14:24;;;;;;;1.93;1.53;;;;;;;13.36;73.91;98838.47;5134656;27;43030;-83
2021/09/18 04:16:53;;;;;;;2.70;2.03;;;;;;;13.39;73.93;98840.91;5134309;27;42210;-84
2021/09/18 04:19:20;;;;;;;3.27;2.33;;;;;;;13.33;74.19;98826.25;5134385;27;40029;-83
2021/09/18 04:21:48;;;;;;;2.50;1.93;;;;;;;13.44;74.48;98836.94;5135479;27;42029;-83
2021/09/18 04:24:16;;;;;;;2.90;2.20;;;;;;;13.38;74.66;98828.56;5117454;27;42075;-82
2021/09/18 04:26:44;;;;;;;2.53;2.00;;;;;;;13.50;74.47;98847.13;5135534;27;41723;-83
2021/09/18 04:29:11;;;;;;;2.47;1.93;;;;;;;13.53;74.66;98846.03;5134374;27;40961;-82
2021/09/18 04:31:39;;;;;;;2.87;2.27;;;;;;;13.57;74.32;98850.19;5117849;27;42262;-83
2021/09/18 04:34:09;;;;;;;3.53;2.10;;;;;;;13.58;74.25;98851.88;5117403;27;41801;-83
2021/09/18 04:36:36;;;;;;;3.07;2.73;;;;;;;13.61;74.30;98846.31;5117917;27;41564;-83
2021/09/18 04:39:05;;;;;;;2.10;1.67;;;;;;;13.62;74.20;98851.53;5116791;27;40255;-83
2021/09/18 04:41:32;;;;;;;2.40;2.20;;;;;;;13.64;74.09;98846.09;5153149;27;42033;-83
2021/09/18 04:44:00;;;;;;;2.73;2.30;;;;;;;13.60;74.17;98839.28;5083515;27;42956;-83
2021/09/18 04:46:28;;;;;;;2.20;1.47;;;;;;;13.68;74.13;98850.22;5117086;27;41723;-83
2021/09/18 04:48:55;;;;;;;2.00;1.80;;;;;;;13.69;74.01;98853.75;5133435;27;38991;-83
2021/09/18 04:51:25;;;;;;;2.47;1.90;;;;;;;13.67;73.96;98861.84;5116975;27;40435;-82
2021/09/18 04:53:52;;;;;;;2.60;2.13;;;;;;;13.44;74.16;98825.47;5152405;27;42882;-82
2021/09/18 04:56:20;;;;;;;2.93;2.23;;;;;;;13.63;74.27;98860.34;5134528;27;43331;-81
2021/09/18 04:58:48;;;;;;;4.70;2.23;;;;;;;13.59;74.42;98858.91;5117609;27;38932;-83
2021/09/18 05:01:16;;;;;;;3.20;2.50;;;;;;;13.56;74.31;98854.66;5133684;27;42017;-84
2021/09/18 05:03:43;;;;;;;2.27;1.90;;;;;;;13.43;74.68;98848.56;5116795;27;41779;-82
2021/09/18 05:06:11;;;;;;;2.40;2.00;;;;;;;13.42;74.63;98846.00;5133750;27;42959;-82
2021/09/18 05:08:40;;;;;;;1.97;1.80;;;;;;;13.18;74.93;98806.97;5152333;27;40975;-82
2021/09/18 05:11:08;;;;;;;2.47;1.73;;;;;;;13.50;74.74;98864.88;5117017;27;40803;-83
2021/09/18 05:13:36;;;;;;;2.10;1.73;;;;;;;13.51;74.88;98866.59;5152193;27;42926;-83
2021/09/18 05:16:03;;;;;;;2.70;2.10;;;;;;;13.44;74.56;98854.72;5116504;27;41090;-83
2021/09/18 05:18:32;;;;;;;2.37;1.40;;;;;;;13.50;74.54;98859.56;5152139;27;40282;-84
2021/09/18 05:21:01;;;;;;;2.83;2.10;;;;;;;13.59;74.44;98874.88;5116423;27;40714;-82
2021/09/18 05:23:29;;;;;;;2.60;2.00;;;;;;;13.49;74.39;98852.56;5116432;27;42087;-83
2021/09/18 05:25:58;;;;;;;1.60;1.40;;;;;;;13.57;74.18;98868.81;5117184;27;42197;-84
2021/09/18 05:28:26;;;;;;;2.20;1.60;;;;;;;13.64;74.37;98883.34;5133708;27;41022;-84
2021/09/18 05:30:53;;;;;;;2.17;1.43;;;;;;;13.64;74.02;98886.84;5116886;27;41662;-81
2021/09/18 05:33:21;;;;;;;1.67;1.47;;;;;;;13.64;74.04;98884.19;5133203;27;42797;-84
2021/09/18 05:35:49;;;;;;;1.60;1.50;;;;;;;13.57;74.00;98874.13;5134597;27;42361;-82
2021/09/18 05:38:17;;;;;;;1.87;1.57;;;;;;;13.58;74.09;98881.16;5132722;27;38794;-83
2021/09/18 05:40:44;;;;;;;2.30;2.10;;;;;;;13.72;73.93;98902.28;5117185;27;40862;-85
2021/09/18 05:43:13;;;;;;;1.87;1.77;;;;;;;13.72;73.64;98891.63;5133748;27;43136;-87
2021/09/18 05:45:41;;;;;;;2.00;1.80;;;;;;;13.80;73.73;98902.53;5116881;27;41147;-83
2021/09/18 05:48:09;;;;;;;1.63;1.53;;;;;;;13.78;73.94;98885.81;5116281;27;38904;-83
2021/09/18 05:50:37;;;;;;;1.57;1.40;;;;;;;13.92;73.66;98898.94;5115186;27;40740;-83
2021/09/18 05:53:05;;;;;;;1.93;1.73;;;;;;;13.94;73.58;98886.38;5115018;27;42246;-85
2021/09/18 05:55:33;;;;;;;1.90;1.70;;;;;;;14.04;73.66;98899.84;5116433;27;42128;-82
2021/09/18 05:58:00;;;;;;;2.83;1.77;;;;;;;14.00;74.09;98877.91;5115988;27;38775;-85
2021/09/18 06:00:30;;;;;;;2.83;2.00;;;;;;;14.14;73.57;98890.19;5133778;27;42052;-83
2021/09/18 06:02:58;;;;;;;1.80;1.70;;;;;;;14.04;73.88;98873.22;5150138;27;42953;-85
2021/09/18 06:05:25;;;;;;;2.87;2.33;;;;;;;14.18;73.72;98883.66;5111955;27;42035;-85
2021/09/18 06:07:53;;;;;;;2.93;2.20;;;;;;;14.31;74.00;98894.22;5113392;27;39060;-83
2021/09/18 06:10:21;;;;;;;3.23;2.20;;;;;;;14.32;73.69;98879.94;5131122;27;40851;-85
2021/09/18 06:12:49;;;;;;;2.77;2.00;;;;;;;14.42;73.73;98872.09;5113996;27;42878;-83
2021/09/18 06:15:17;;;;;;;2.90;2.40;;;;;;;14.63;73.57;98887.25;5115340;27;41269;-83
2021/09/18 06:17:46;;;;;;;3.17;2.40;;;;;;;14.74;73.30;98892.59;5151059;27;39761;-84
2021/09/18 06:20:14;;;;;;;3.73;3.00;;;;;;;14.78;73.33;98871.88;5132414;27;41852;-84
2021/09/18 06:22:42;;;;;;;3.60;2.63;;;;;;;14.87;73.21;98870.28;5114234;27;43003;-83
2021/09/18 06:25:12;;;;;;;3.60;2.60;;;;;;;15.16;73.03;98892.81;5113610;27;41248;-85
2021/09/18 06:27:40;;;;;;;3.27;2.67;;;;;;;15.31;72.71;98890.72;5097511;27;39122;-83
2021/09/18 06:30:09;;;;;;;2.10;1.90;;;;;;;15.46;72.59;98892.97;5115075;27;40941;-85
2021/09/18 06:32:37;;;;;;;3.33;2.50;;;;;;;15.58;71.92;98887.66;5114961;27;41757;-87
2021/09/18 06:35:07;;;;;;;2.87;2.17;;;;;;;15.76;71.80;98886.13;5131556;27;41264;-84
2021/09/18 06:37:43;;;;;;;1.90;1.80;;;;;;;15.98;71.33;98890.50;5114357;27;40731;-85
2021/09/18 06:40:12;;;;;;;2.57;2.37;;;;;;;16.12;70.90;98888.38;5149778;27;43925;-84
2021/09/18 06:42:40;;;;;;;2.73;2.53;;;;;;;16.39;70.39;98908.38;5149873;27;43936;-85
2021/09/18 06:45:09;;;;;;;2.63;1.90;;;;;;;16.60;70.12;98903.84;5114832;27;42437;-86
2021/09/18 06:47:37;;;;;;;2.17;1.67;;;;;;;16.80;70.06;98907.53;5114809;27;39064;-84
2021/09/18 06:50:08;;;;;;;2.10;1.90;;;;;;;16.88;69.23;98892.50;5114872;27;40547;-85
2021/09/18 06:52:36;;;;;;;3.17;2.30;;;;;;;16.97;69.06;98884.63;5114716;27;41759;-84
2021/09/18 06:55:04;;;;;;;2.87;2.03;;;;;;;16.81;68.56;98848.50;5132117;27;42302;-86
2021/09/18 06:57:35;;;;;;;1.93;1.70;;;;;;;17.10;68.56;98879.88;5131325;27;40678;-85
2021/09/18 07:00:03;;;;;;;2.50;2.30;;;;;;;17.26;68.82;98898.09;5114667;27;41334;-87
2021/09/18 07:02:31;;;;;;;1.97;1.77;;;;;;;17.27;68.43;98903.31;5113645;27;41788;-82
2021/09/18 07:05:00;;;;;;;2.33;2.13;;;;;;;17.29;68.47;98906.72;5112237;27;41367;-83
2021/09/18 07:07:29;;;;;;;2.53;2.20;;;;;;;17.26;68.05;98896.28;5150717;27;40216;-85
2021/09/18 07:09:57;;;;;;;2.43;2.23;;;;;;;17.29;67.73;98890.66;5131019;27;41031;-85
2021/09/18 07:12:25;;;;;;;2.83;2.43;;;;;;;17.45;67.50;98909.69;5131128;27;43298;-84
2021/09/18 07:14:53;;;;;;;3.33;2.30;;;;;;;17.70;67.17;98911.03;5126174;27;42232;-82
2021/09/18 07:17:21;;;;;;;2.67;1.93;;;;;;;18.16;66.64;98915.72;5130133;27;39465;-83
2021/09/18 07:19:49;;;;;;;2.43;2.23;;;;;;;18.79;65.01;98902.59;5112514;27;41541;-84
2021/09/18 07:22:16;;;;;;;2.30;2.10;;;;;;;19.45;63.34;98926.63;5112945;27;42565;-84
2021/09/18 07:24:45;;;;;;;2.40;2.20;;;;;;;19.79;62.84;98917.94;5113412;27;41279;-86
2021/09/18 07:27:13;;;;;;;2.93;2.20;;;;;;;19.91;63.18;98905.97;5149489;27;40308;-83
2021/09/18 07:29:41;;;;;;;2.10;1.90;;;;;;;20.14;61.84;98928.72;5130810;27;41977;-85
2021/09/18 07:32:09;;;;;;;4.57;2.17;;;;;;;20.25;60.31;98925.78;5114502;27;41595;-86
2021/09/18 07:34:36;;;;;;;2.17;1.97;;;;;;;20.70;60.42;98927.50;5132773;27;42596;-85
2021/09/18 07:37:18;;;;;;;2.83;2.17;;;;;;;21.41;57.98;98921.81;5119162;27;39108;-84
2021/09/18 07:39:48;;;;;;;2.10;1.90;;;;;;;22.39;55.95;98950.69;5116490;27;40678;-85
2021/09/18 07:42:16;;;;;;;2.30;2.10;;;;;;;23.54;52.97;98957.59;5116212;27;41962;-85
2021/09/18 07:44:43;;;;;;;2.33;2.13;;;;;;;24.62;50.80;98959.28;5134843;27;41717;-86
2021/09/18 07:47:11;;;;;;;2.60;2.40;;;;;;;25.37;48.47;98970.03;5134295;27;40148;-86
2021/09/18 07:49:39;;;;;;;2.30;2.20;;;;;;;26.30;46.54;98968.53;5133537;27;41035;-86
2021/09/18 07:52:07;;;;;;;3.10;2.50;;;;;;;26.55;45.54;98983.41;5116407;27;43428;-85
2021/09/18 07:54:34;;;;;;;2.03;1.93;;;;;;;25.84;45.87;98976.94;5134531;27;42361;-85
2021/09/18 07:57:04;;;;;;;2.43;2.10;;;;;;;25.23;47.36;98973.59;5118432;27;38708;-83
2021/09/18 07:59:32;;;;;;;2.20;2.00;;;;;;;24.68;48.01;98968.53;5134290;27;42520;-85
2021/09/18 08:02:00;;;;;;;2.50;2.30;;;;;;;24.37;48.35;98960.50;5116938;27;41886;-86
2021/09/18 08:04:28;;;;;;;2.57;2.30;;;;;;;23.93;48.79;98920.53;5116456;27;41387;-86
2021/09/18 08:06:56;;;;;;;2.23;2.03;;;;;;;24.38;48.73;98948.66;5134439;27;40112;-86
2021/09/18 08:09:24;;;;;;;2.33;2.13;;;;;;;24.89;48.51;98965.97;5116861;27;41701;-87
2021/09/18 08:11:52;;;;;;;2.60;2.40;;;;;;;25.28;47.97;98981.19;5117460;27;41760;-87
2021/09/18 08:14:21;;;;;;;2.93;2.63;;;;;;;25.47;47.26;98974.38;5134065;27;41215;-86
2021/09/18 08:16:49;;;;;;;3.57;2.73;;;;;;;25.84;46.69;98986.97;5116985;27;39249;-84
2021/09/18 08:19:17;;;;;;;2.80;2.57;;;;;;;25.97;46.42;98976.25;5133264;27;41646;-85
2021/09/18 08:21:45;;;;;;;3.20;2.90;;;;;;;26.13;45.62;98968.72;5117742;27;42030;-84
2021/09/18 08:24:13;;;;;;;2.93;2.73;;;;;;;26.67;44.93;98995.41;5099573;27;42028;-83
2021/09/18 08:26:40;;;;;;;10.73;8.17;;;;;;;27.04;44.25;98997.00;5134460;27;39940;-84
2021/09/18 08:29:08;;;;;;;6.00;5.00;;;;;;;27.69;43.27;99000.38;5133666;27;42833;-85
2021/09/18 08:31:38;;;;;;;3.97;3.43;;;;;;;28.54;42.53;99005.28;5133123;27;43043;-86
2021/09/18 08:34:06;;;;;;;3.33;3.03;;;;;;;29.48;39.64;99024.19;5114479;27;41911;-86
2021/09/18 08:36:34;;;;;;;3.80;3.40;;;;;;;30.10;38.18;99034.53;5132388;27;40286;-84
2021/09/18 08:39:02;;;;;;;4.53;4.13;;;;;;;30.24;38.19;99025.22;5131948;27;41790;-85
2021/09/18 08:41:31;;;;;;;3.67;3.03;;;;;;;30.40;37.62;99029.34;5115913;27;42247;-85
2021/09/18 08:43:59;;;;;;;3.00;2.70;;;;;;;30.80;37.31;99029.94;5115346;27;41062;-84
2021/09/18 08:46:30;;;;;;;3.30;3.00;;;;;;;31.29;36.19;99018.16;5132322;27;39002;-85
2021/09/18 08:49:03;;;;;;;3.73;3.43;;;;;;;31.42;36.14;99028.16;5132504;27;42478;-84
2021/09/18 08:51:34;;;;;;;3.03;2.77;;;;;;;31.47;36.55;99017.38;5113968;27;42321;-84
2021/09/18 08:54:04;;;;;;;3.27;2.97;;;;;;;31.18;37.33;99026.28;5114760;27;41325;-84
2021/09/18 08:56:32;;;;;;;3.13;2.83;;;;;;;30.53;37.64;99006.56;5132771;27;40374;-84
2021/09/18 08:59:00;;;;;;;4.17;3.77;;;;;;;30.17;37.92;99023.56;5133072;27;42566;-85
2021/09/18 09:01:28;;;;;;;3.30;3.07;;;;;;;29.77;38.32;99023.72;5099477;27;43029;-85
2021/09/18 09:04:01;;;;;;;4.10;3.60;;;;;;;29.73;38.67;99021.59;5132646;27;43559;-86
2021/09/18 09:06:41;;;;;;;3.60;3.23;;;;;;;30.07;37.92;99010.38;5152705;27;40212;-85
2021/09/18 09:09:09;;;;;;;4.33;3.30;;;;;;;30.59;37.47;99016.63;5132831;27;42166;-85
2021/09/18 09:11:37;;;;;;;3.70;3.33;;;;;;;30.60;37.28;99007.38;5117326;27;42496;-85
2021/09/18 09:14:08;;;;;;;3.30;3.00;;;;;;;30.20;37.97;99002.09;5115302;27;42408;-84
2021/09/18 09:16:38;;;;;;;4.03;3.60;;;;;;;29.61;37.91;99016.81;5117300;27;39284;-85
2021/09/18 09:19:18;;;;;;;3.20;2.90;;;;;;;29.06;39.22;99009.09;5133549;27;40924;-86
2021/09/18 09:21:50;;;;;;;3.97;3.33;;;;;;;28.67;40.35;99002.59;5155919;27;42917;-85
2021/09/18 09:24:19;;;;;;;3.87;3.10;;;;;;;28.29;40.88;98983.25;5119960;27;41052;-86
2021/09/18 09:27:05;;;;;;;3.90;3.50;;;;;;;27.98;41.01;98986.44;5118963;27;39015;-86
2021/09/18 09:29:41;;;;;;;4.90;4.40;;;;;;;27.45;41.71;98975.28;5155905;27;43424;-84
2021/09/18 09:32:27;;;;;;;4.77;3.80;;;;;;;27.09;42.73;98983.66;5138365;27;42661;-85
2021/09/18 09:34:57;;;;;;;4.20;3.77;;;;;;;26.91;43.66;98964.25;5126840;27;41273;-85
2021/09/18 09:37:27;;;;;;;5.93;4.90;;;;;;;26.79;42.83;98955.81;5117899;27;39295;-85
2021/09/18 09:39:57;;;;;;;5.37;4.13;;;;;;;26.92;43.24;98965.09;5117677;27;40896;-85
2021/09/18 09:42:27;;;;;;;5.33;4.83;;;;;;;27.23;43.44;98962.81;5120484;27;41610;-86
2021/09/18 09:44:55;;;;;;;3.53;3.10;;;;;;;27.44;42.89;98954.59;5120828;27;42074;-86
2021/09/18 09:47:24;;;;;;;7.67;5.60;;;;;;;27.34;42.62;98970.41;5152966;27;40518;-84
2021/09/18 09:49:54;;;;;;;4.90;3.70;;;;;;;27.20;42.08;98984.97;5115979;27;41015;-85
2021/09/18 09:52:25;;;;;;;5.20;4.03;;;;;;;26.89;42.79;98976.34;5130404;27;42051;-85
2021/09/18 09:54:58;;;;;;;5.63;4.53;;;;;;;26.82;43.50;98970.88;5115218;27;40905;-84
2021/09/18 09:57:27;;;;;;;4.50;3.50;;;;;;;26.81;43.54;98966.47;5147587;27;40120;-84
2021/09/18 09:59:59;;;;;;;4.57;3.83;;;;;;;26.96;43.82;98971.81;5130104;27;41418;-86
2021/09/18 10:02:27;;;;;;;4.13;3.70;;;;;;;27.02;43.62;98979.22;5130935;27;43046;-84
2021/09/18 10:04:55;;;;;;;4.60;4.07;;;;;;;26.92;43.79;98965.94;5131385;27;42082;-85
2021/09/18 10:07:24;;;;;;;4.23;3.80;;;;;;;27.03;43.91;98970.00;5132454;27;40643;-84
2021/09/18 10:09:52;;;;;;;4.27;3.57;;;;;;;27.11;43.19;98984.28;5132544;27;42466;-84
2021/09/18 10:12:24;;;;;;;6.57;4.53;;;;;;;27.08;43.00;98962.94;5114902;27;41967;-85
2021/09/18 10:14:54;;;;;;;4.47;3.83;;;;;;;27.20;43.06;98976.81;5150158;27;42207;-86
2021/09/18 10:17:24;;;;;;;4.40;3.13;;;;;;;27.09;43.68;98955.63;5132501;27;39124;-85
2021/09/18 10:20:06;;;;;;;5.47;3.73;;;;;;;26.93;42.46;98966.81;5115260;27;41681;-84
2021/09/18 10:25:39;;;;;;;6.07;3.83;;;;;;;26.48;42.91;98963.47;5129849;27;41633;-85
2021/09/18 10:28:10;;;;;;;5.67;4.37;;;;;;;26.09;43.32;98964.69;5132092;27;39921;-85
2021/09/18 10:30:41;;;;;;;7.23;4.97;;;;;;;25.81;43.59;98942.06;5115991;27;41590;-86
2021/09/18 10:33:27;;;;;;;4.97;3.67;;;;;;;25.88;44.21;98955.69;5131442;27;41982;-84
2021/09/18 10:35:58;;;;;;;4.63;4.10;;;;;;;25.78;44.18;98961.44;5114218;27;41444;-84
2021/09/18 10:38:28;;;;;;;4.23;3.83;;;;;;;26.04;44.37;98939.19;5114408;27;39118;-84
2021/09/18 10:41:06;;;;;;;5.77;4.07;;;;;;;26.53;43.86;98944.72;5114303;27;41187;-84
2021/09/18 10:43:36;;;;;;;5.90;4.43;;;;;;;26.75;43.45;98950.94;5131187;27;41729;-84
2021/09/18 10:46:06;;;;;;;4.37;3.47;;;;;;;27.13;42.66;98967.78;5148692;27;43377;-85
2021/09/18 10:48:49;;;;;;;5.10;3.10;;;;;;;27.70;42.11;98964.78;5130634;27;40729;-85
2021/09/18 10:51:40;;;;;;;4.10;3.13;;;;;;;28.13;41.26;98969.97;5127647;27;42460;-85
2021/09/18 10:54:22;;;;;;;12.70;8.57;;;;;;;28.62;40.52;98977.81;5103215;28;20555;-85
2021/09/18 10:57:07;;;;;;;6.17;4.97;;;;;;;29.77;38.46;98980.03;5165105;27;21018;-86
2021/09/18 10:59:53;;;;;;;4.87;4.00;;;;;;;31.51;35.51;99002.19;5166075;27;20552;-84
2021/09/18 11:02:48;;;;;;;3.03;2.73;;;;;;;32.64;33.87;99004.34;5104293;28;20552;-85
2021/09/18 11:05:48;;;;;;;3.50;2.90;;;;;;;31.97;33.90;98984.38;5105332;28;20629;-84
2021/09/18 11:08:53;;;;;;;2.70;2.33;;;;;;;31.17;34.77;98989.03;5105608;28;20570;-85
2021/09/18 11:11:37;;;;;;;3.00;2.70;;;;;;;32.23;33.98;99002.41;5106295;28;20572;-86
2021/09/18 11:14:33;;;;;;;2.77;2.57;;;;;;;33.94;30.72;99027.00;5167538;27;20547;-86
2021/09/18 11:17:34;;;;;;;2.40;2.20;;;;;;;36.11;28.86;99026.31;5105871;28;20568;-86
2021/09/18 11:20:21;;;;;;;2.30;2.10;;;;;;;35.95;27.63;99017.03;5118426;27;20565;-86
2021/09/18 11:23:04;;;;;;;2.07;1.97;;;;;;;34.99;28.60;99012.81;5106249;28;20570;-86
2021/09/18 11:25:47;;;;;;;2.00;1.80;;;;;;;34.10;28.88;98998.75;5147124;27;20560;-85
2021/09/18 11:28:35;;;;;;;2.10;1.90;;;;;;;33.26;30.48;98994.69;5202655;27;20551;-85
2021/09/18 11:31:20;;;;;;;2.00;1.90;;;;;;;32.21;31.28;98972.50;5147821;27;20548;-85
2021/09/18 11:34:05;;;;;;;1.70;1.60;;;;;;;31.54;32.77;98982.53;5147402;27;20553;-85
2021/09/18 11:36:48;;;;;;;3.17;2.17;;;;;;;30.84;34.15;98962.78;5167876;27;20559;-84
2021/09/18 11:39:51;;;;;;;2.10;1.93;;;;;;;30.42;34.23;98971.69;5105752;28;21094;-85
2021/09/18 11:42:36;;;;;;;1.90;1.80;;;;;;;31.59;33.89;98963.53;5106488;28;20586;-85
2021/09/18 11:45:20;;;;;;;2.07;1.90;;;;;;;34.90;28.38;98987.63;5105619;28;20574;-85
2021/09/18 11:48:02;;;;;;;1.90;1.80;;;;;;;35.11;28.79;98988.81;5139147;27;20564;-85
2021/09/18 11:50:44;;;;;;;1.50;1.40;;;;;;;34.55;28.71;99001.56;5107150;28;20564;-84